sensor_id;sensor_type;location;lat;lon;timestamp;pressure;altitude;pressure_sealevel;temperature;humidity
9460;BME280;4768;42.664;23.240;2023-05-12T00:01:19;-9623.97;;;7.50;100.00
9460;BME280;4768;42.664;23.240;2023-05-12T00:03:46;-9622.13;;;7.44;100.00
9460;BME280;4768;42.664;23.240;2023-05-12T00:06:13;-9622.41;;;7.45;100.00
9460;BME280;4768;42.664;23.240;2023-05-12T00:08:39;-9622.69;;;7.46;100.00
9460;BME280;4768;42.664;23.240;2023-05-12T00:11:06;-9621.13;;;7.40;100.00
9460;BME280;4768;42.664;23.240;2023-05-12T00:13:33;-9620.84;;;7.39;100.00
9460;BME280;4768;42.664;23.240;2023-05-12T00:16:01;-9620.00;;;7.36;100.00
9460;BME280;4768;42.664;23.240;2023-05-12T00:18:29;-9622.41;;;7.45;100.00
9460;BME280;4768;42.664;23.240;2023-05-12T00:20:56;-9620.00;;;7.36;100.00
9460;BME280;4768;42.664;23.240;2023-05-12T00:23:22;-9621.00;;;7.40;100.00
9460;BME280;4768;42.664;23.240;2023-05-12T00:25:50;-9620.84;;;7.39;100.00
9460;BME280;4768;42.664;23.240;2023-05-12T00:28:18;-9620.13;;;7.37;100.00
9460;BME280;4768;42.664;23.240;2023-05-12T00:30:44;-9619.44;;;7.34;100.00
9460;BME280;4768;42.664;23.240;2023-05-12T00:33:11;-9620.00;;;7.36;100.00
9460;BME280;4768;42.664;23.240;2023-05-12T00:35:39;-9618.56;;;7.31;100.00
9460;BME280;4768;42.664;23.240;2023-05-12T00:38:10;-9618.00;;;7.29;100.00
9460;BME280;4768;42.664;23.240;2023-05-12T00:40:36;-9615.75;;;7.21;100.00
9460;BME280;4768;42.664;23.240;2023-05-12T00:43:03;-9614.47;;;7.17;100.00
9460;BME280;4768;42.664;23.240;2023-05-12T00:45:30;-9612.50;;;7.10;100.00
9460;BME280;4768;42.664;23.240;2023-05-12T00:47:57;-9611.50;;;7.07;100.00
9460;BME280;4768;42.664;23.240;2023-05-12T00:50:24;-9610.94;;;7.05;100.00
9460;BME280;4768;42.664;23.240;2023-05-12T00:52:53;-9609.81;;;7.01;100.00
9460;BME280;4768;42.664;23.240;2023-05-12T00:55:20;-9608.94;;;6.98;100.00
9460;BME280;4768;42.664;23.240;2023-05-12T00:57:46;-9608.09;;;6.95;100.00
9460;BME280;4768;42.664;23.240;2023-05-12T01:00:13;-9606.69;;;6.90;100.00
9460;BME280;4768;42.664;23.240;2023-05-12T01:02:40;-9606.41;;;6.89;100.00
9460;BME280;4768;42.664;23.240;2023-05-12T01:05:08;-9605.13;;;6.84;100.00
9460;BME280;4768;42.664;23.240;2023-05-12T01:07:35;-9602.88;;;6.76;100.00
9460;BME280;4768;42.664;23.240;2023-05-12T01:10:04;-9600.75;;;6.69;100.00
9460;BME280;4768;42.664;23.240;2023-05-12T01:12:41;-9600.47;;;6.68;100.00
9460;BME280;4768;42.664;23.240;2023-05-12T01:15:09;-9598.91;;;6.63;100.00
9460;BME280;4768;42.664;23.240;2023-05-12T01:17:39;-9598.47;;;6.61;100.00
9460;BME280;4768;42.664;23.240;2023-05-12T01:20:11;-9596.50;;;6.54;100.00
9460;BME280;4768;42.664;23.240;2023-05-12T01:22:40;-9595.50;;;6.51;100.00
9460;BME280;4768;42.664;23.240;2023-05-12T01:25:10;-9593.53;;;6.44;100.00
9460;BME280;4768;42.664;23.240;2023-05-12T01:27:39;-9593.53;;;6.44;100.00
9460;BME280;4768;42.664;23.240;2023-05-12T01:30:07;-9594.22;;;6.46;100.00
9460;BME280;4768;42.664;23.240;2023-05-12T01:32:37;-9592.97;;;6.42;100.00
9460;BME280;4768;42.664;23.240;2023-05-12T01:35:05;-9593.09;;;6.42;100.00
9460;BME280;4768;42.664;23.240;2023-05-12T01:37:32;-9590.97;;;6.35;100.00
9460;BME280;4768;42.664;23.240;2023-05-12T01:39:59;-9588.72;;;6.27;100.00
9460;BME280;4768;42.664;23.240;2023-05-12T01:42:28;-9589.41;;;6.29;100.00
9460;BME280;4768;42.664;23.240;2023-05-12T01:44:56;-9588.84;;;6.27;100.00
9460;BME280;4768;42.664;23.240;2023-05-12T01:47:23;-9588.28;;;6.25;100.00
9460;BME280;4768;42.664;23.240;2023-05-12T01:49:50;-9587.56;;;6.23;100.00
9460;BME280;4768;42.664;23.240;2023-05-12T01:52:18;-9587.44;;;6.23;100.00
9460;BME280;4768;42.664;23.240;2023-05-12T01:54:45;-9588.16;;;6.25;100.00
9460;BME280;4768;42.664;23.240;2023-05-12T01:57:12;-9586.44;;;6.19;100.00
9460;BME280;4768;42.664;23.240;2023-05-12T01:59:39;-9586.16;;;6.18;100.00
9460;BME280;4768;42.664;23.240;2023-05-12T02:02:07;-9588.16;;;6.25;100.00
9460;BME280;4768;42.664;23.240;2023-05-12T02:04:34;-9584.47;;;6.12;100.00
9460;BME280;4768;42.664;23.240;2023-05-12T02:07:02;-9585.75;;;6.17;100.00
9460;BME280;4768;42.664;23.240;2023-05-12T02:09:28;-9583.91;;;6.10;100.00
9460;BME280;4768;42.664;23.240;2023-05-12T02:11:56;-9583.19;;;6.08;100.00
9460;BME280;4768;42.664;23.240;2023-05-12T02:14:23;-9582.47;;;6.05;100.00
9460;BME280;4768;42.664;23.240;2023-05-12T02:16:50;-9581.91;;;6.03;100.00
9460;BME280;4768;42.664;23.240;2023-05-12T02:19:19;-9581.63;;;6.02;100.00
9460;BME280;4768;42.664;23.240;2023-05-12T02:21:46;-9581.91;;;6.03;100.00
9460;BME280;4768;42.664;23.240;2023-05-12T02:24:12;-9580.78;;;5.99;100.00
9460;BME280;4768;42.664;23.240;2023-05-12T02:26:41;-9579.78;;;5.96;100.00
9460;BME280;4768;42.664;23.240;2023-05-12T02:29:08;-9580.22;;;5.97;100.00
9460;BME280;4768;42.664;23.240;2023-05-12T02:31:35;-9579.38;;;5.94;100.00
9460;BME280;4768;42.664;23.240;2023-05-12T02:34:02;-9580.38;;;5.98;100.00
9460;BME280;4768;42.664;23.240;2023-05-12T02:36:30;-9578.38;;;5.91;100.00
9460;BME280;4768;42.664;23.240;2023-05-12T02:38:57;-9579.94;;;5.96;100.00
9460;BME280;4768;42.664;23.240;2023-05-12T02:41:24;-9580.09;;;5.97;100.00
9460;BME280;4768;42.664;23.240;2023-05-12T02:43:51;-9577.53;;;5.88;100.00
9460;BME280;4768;42.664;23.240;2023-05-12T02:46:17;-9580.09;;;5.97;100.00
9460;BME280;4768;42.664;23.240;2023-05-12T02:48:44;-9577.97;;;5.89;100.00
9460;BME280;4768;42.664;23.240;2023-05-12T02:51:11;-9574.41;;;5.77;100.00
9460;BME280;4768;42.664;23.240;2023-05-12T02:53:39;-9578.38;;;5.91;100.00
9460;BME280;4768;42.664;23.240;2023-05-12T02:56:06;-9575.97;;;5.82;100.00
9460;BME280;4768;42.664;23.240;2023-05-12T02:58:33;-9576.25;;;5.83;100.00
9460;BME280;4768;42.664;23.240;2023-05-12T03:01:00;-9576.69;;;5.85;100.00
9460;BME280;4768;42.664;23.240;2023-05-12T03:03:29;-9574.84;;;5.78;100.00
9460;BME280;4768;42.664;23.240;2023-05-12T03:05:56;-9576.69;;;5.85;100.00
9460;BME280;4768;42.664;23.240;2023-05-12T03:08:23;-9578.25;;;5.90;100.00
9460;BME280;4768;42.664;23.240;2023-05-12T03:10:51;-9575.84;;;5.82;100.00
9460;BME280;4768;42.664;23.240;2023-05-12T03:13:18;-9577.97;;;5.89;100.00
9460;BME280;4768;42.664;23.240;2023-05-12T03:15:45;-9572.72;;;5.71;100.00
9460;BME280;4768;42.664;23.240;2023-05-12T03:18:11;-9573.84;;;5.75;100.00
9460;BME280;4768;42.664;23.240;2023-05-12T03:20:38;-9575.56;;;5.81;100.00
9460;BME280;4768;42.664;23.240;2023-05-12T03:23:05;-9569.19;;;5.59;100.00
9460;BME280;4768;42.664;23.240;2023-05-12T03:25:32;-9572.44;;;5.70;100.00
9460;BME280;4768;42.664;23.240;2023-05-12T03:28:00;-9570.88;;;5.65;100.00
9460;BME280;4768;42.664;23.240;2023-05-12T03:30:27;-9572.28;;;5.70;100.00
9460;BME280;4768;42.664;23.240;2023-05-12T03:32:54;-9568.91;;;5.58;100.00
9460;BME280;4768;42.664;23.240;2023-05-12T03:35:21;-9569.31;;;5.59;100.00
9460;BME280;4768;42.664;23.240;2023-05-12T03:37:47;-9569.75;;;5.61;100.00
9460;BME280;4768;42.664;23.240;2023-05-12T03:40:14;-9569.59;;;5.60;100.00
9460;BME280;4768;42.664;23.240;2023-05-12T03:42:42;-9568.91;;;5.58;100.00
9460;BME280;4768;42.664;23.240;2023-05-12T03:45:11;-9569.31;;;5.59;100.00
9460;BME280;4768;42.664;23.240;2023-05-12T03:47:38;-9569.19;;;5.59;100.00
9460;BME280;4768;42.664;23.240;2023-05-12T03:50:06;-9568.34;;;5.56;100.00
9460;BME280;4768;42.664;23.240;2023-05-12T03:52:33;-9568.06;;;5.55;100.00
9460;BME280;4768;42.664;23.240;2023-05-12T03:55:03;-9568.34;;;5.56;100.00
9460;BME280;4768;42.664;23.240;2023-05-12T03:57:30;-9570.31;;;5.63;100.00
9460;BME280;4768;42.664;23.240;2023-05-12T03:59:56;-9571.03;;;5.65;100.00
9460;BME280;4768;42.664;23.240;2023-05-12T04:02:24;-9570.47;;;5.63;100.00
9460;BME280;4768;42.664;23.240;2023-05-12T04:04:51;-9567.75;;;5.54;100.00
9460;BME280;4768;42.664;23.240;2023-05-12T04:07:18;-9568.91;;;5.58;100.00
9460;BME280;4768;42.664;23.240;2023-05-12T04:09:45;-9570.75;;;5.64;100.00
9460;BME280;4768;42.664;23.240;2023-05-12T04:12:11;-9571.16;;;5.66;100.00
9460;BME280;4768;42.664;23.240;2023-05-12T04:14:38;-9572.16;;;5.69;100.00
9460;BME280;4768;42.664;23.240;2023-05-12T04:17:05;-9573.28;;;5.73;100.00
9460;BME280;4768;42.664;23.240;2023-05-12T04:19:33;-9573.56;;;5.74;100.00
9460;BME280;4768;42.664;23.240;2023-05-12T04:22:00;-9570.88;;;5.65;100.00
9460;BME280;4768;42.664;23.240;2023-05-12T04:24:26;-9571.59;;;5.67;100.00
9460;BME280;4768;42.664;23.240;2023-05-12T04:26:53;-9570.59;;;5.64;100.00
9460;BME280;4768;42.664;23.240;2023-05-12T04:29:20;-9573.16;;;5.73;100.00
9460;BME280;4768;42.664;23.240;2023-05-12T04:31:47;-9572.88;;;5.72;100.00
9460;BME280;4768;42.664;23.240;2023-05-12T04:34:13;-9575.13;;;5.79;100.00
9460;BME280;4768;42.664;23.240;2023-05-12T04:36:41;-9569.19;;;5.59;100.00
9460;BME280;4768;42.664;23.240;2023-05-12T04:39:08;-9573.84;;;5.75;100.00
9460;BME280;4768;42.664;23.240;2023-05-12T04:41:35;-9573.72;;;5.75;100.00
9460;BME280;4768;42.664;23.240;2023-05-12T04:44:01;-9574.56;;;5.78;100.00
9460;BME280;4768;42.664;23.240;2023-05-12T04:46:28;-9576.69;;;5.85;100.00
9460;BME280;4768;42.664;23.240;2023-05-12T04:48:55;-9577.38;;;5.87;100.00
9460;BME280;4768;42.664;23.240;2023-05-12T04:51:21;-9574.56;;;5.78;100.00
9460;BME280;4768;42.664;23.240;2023-05-12T04:53:50;-9576.13;;;5.83;100.00
9460;BME280;4768;42.664;23.240;2023-05-12T04:56:16;-9577.53;;;5.88;100.00
9460;BME280;4768;42.664;23.240;2023-05-12T04:58:43;-9577.53;;;5.88;100.00
9460;BME280;4768;42.664;23.240;2023-05-12T05:01:10;-9576.69;;;5.85;100.00
9460;BME280;4768;42.664;23.240;2023-05-12T05:03:38;-9578.25;;;5.90;100.00
9460;BME280;4768;42.664;23.240;2023-05-12T05:06:04;-9581.34;;;6.01;100.00
9460;BME280;4768;42.664;23.240;2023-05-12T05:08:31;-9580.38;;;5.98;100.00
9460;BME280;4768;42.664;23.240;2023-05-12T05:10:59;-9581.34;;;6.01;100.00
9460;BME280;4768;42.664;23.240;2023-05-12T05:13:26;-9583.06;;;6.07;100.00
9460;BME280;4768;42.664;23.240;2023-05-12T05:15:53;-9582.78;;;6.06;100.00
9460;BME280;4768;42.664;23.240;2023-05-12T05:18:21;-9582.78;;;6.06;100.00
9460;BME280;4768;42.664;23.240;2023-05-12T05:20:48;-9587.44;;;6.23;100.00
9460;BME280;4768;42.664;23.240;2023-05-12T05:23:15;-9583.19;;;6.08;100.00
9460;BME280;4768;42.664;23.240;2023-05-12T05:25:41;-9583.19;;;6.08;100.00
9460;BME280;4768;42.664;23.240;2023-05-12T05:28:09;-9583.91;;;6.10;100.00
9460;BME280;4768;42.664;23.240;2023-05-12T05:30:36;-9587.00;;;6.21;100.00
9460;BME280;4768;42.664;23.240;2023-05-12T05:33:03;-9585.31;;;6.15;100.00
9460;BME280;4768;42.664;23.240;2023-05-12T05:35:30;-9587.72;;;6.24;100.00
9460;BME280;4768;42.664;23.240;2023-05-12T05:37:57;-9586.16;;;6.18;100.00
9460;BME280;4768;42.664;23.240;2023-05-12T05:40:23;-9587.72;;;6.24;100.00
9460;BME280;4768;42.664;23.240;2023-05-12T05:42:50;-9587.44;;;6.23;100.00
9460;BME280;4768;42.664;23.240;2023-05-12T05:45:18;-9589.69;;;6.30;100.00
9460;BME280;4768;42.664;23.240;2023-05-12T05:47:45;-9589.69;;;6.30;100.00
9460;BME280;4768;42.664;23.240;2023-05-12T05:50:14;-9589.56;;;6.30;100.00
9460;BME280;4768;42.664;23.240;2023-05-12T05:52:41;-9591.25;;;6.36;100.00
9460;BME280;4768;42.664;23.240;2023-05-12T05:55:08;-9591.25;;;6.36;100.00
9460;BME280;4768;42.664;23.240;2023-05-12T05:57:34;-9590.97;;;6.35;100.00
9460;BME280;4768;42.664;23.240;2023-05-12T06:00:02;-9592.69;;;6.41;100.00
9460;BME280;4768;42.664;23.240;2023-05-12T06:02:30;-9594.66;;;6.48;100.00
9460;BME280;4768;42.664;23.240;2023-05-12T06:04:57;-9593.66;;;6.44;100.00
9460;BME280;4768;42.664;23.240;2023-05-12T06:07:25;-9593.25;;;6.43;100.00
9460;BME280;4768;42.664;23.240;2023-05-12T06:09:52;-9595.66;;;6.51;100.00
9460;BME280;4768;42.664;23.240;2023-05-12T06:12:19;-9598.34;;;6.61;100.00
9460;BME280;4768;42.664;23.240;2023-05-12T06:14:46;-9599.59;;;6.65;100.00
9460;BME280;4768;42.664;23.240;2023-05-12T06:17:12;-9601.88;;;6.73;100.00
9460;BME280;4768;42.664;23.240;2023-05-12T06:19:41;-9601.72;;;6.72;100.00
9460;BME280;4768;42.664;23.240;2023-05-12T06:22:08;-9602.16;;;6.74;100.00
9460;BME280;4768;42.664;23.240;2023-05-12T06:24:35;-9602.00;;;6.73;100.00
9460;BME280;4768;42.664;23.240;2023-05-12T06:27:01;-9603.72;;;6.79;100.00
9460;BME280;4768;42.664;23.240;2023-05-12T06:29:28;-9604.41;;;6.82;100.00
9460;BME280;4768;42.664;23.240;2023-05-12T06:31:55;-9602.44;;;6.75;100.00
9460;BME280;4768;42.664;23.240;2023-05-12T06:34:22;-9603.84;;;6.80;100.00
9460;BME280;4768;42.664;23.240;2023-05-12T06:36:50;-9605.84;;;6.87;100.00
9460;BME280;4768;42.664;23.240;2023-05-12T06:39:17;-9606.41;;;6.89;100.00
9460;BME280;4768;42.664;23.240;2023-05-12T06:41:43;-9610.66;;;7.04;100.00
9460;BME280;4768;42.664;23.240;2023-05-12T06:44:10;-9612.34;;;7.10;100.00
9460;BME280;4768;42.664;23.240;2023-05-12T06:46:37;-9609.09;;;6.98;100.00
9460;BME280;4768;42.664;23.240;2023-05-12T06:49:04;-9610.38;;;7.03;100.00
9460;BME280;4768;42.664;23.240;2023-05-12T06:51:31;-9611.06;;;7.05;100.00
9460;BME280;4768;42.664;23.240;2023-05-12T06:53:59;-9611.78;;;7.08;100.00
9460;BME280;4768;42.664;23.240;2023-05-12T06:56:26;-9615.31;;;7.20;100.00
9460;BME280;4768;42.664;23.240;2023-05-12T06:58:54;-9619.00;;;7.33;100.00
9460;BME280;4768;42.664;23.240;2023-05-12T07:01:25;-9616.59;;;7.24;100.00
9460;BME280;4768;42.664;23.240;2023-05-12T07:03:52;-9614.75;;;7.18;100.00
9460;BME280;4768;42.664;23.240;2023-05-12T07:06:18;-9617.03;;;7.26;100.00
9460;BME280;4768;42.664;23.240;2023-05-12T07:08:45;-9617.59;;;7.28;100.00
9460;BME280;4768;42.664;23.240;2023-05-12T07:11:13;-9621.56;;;7.42;100.00
9460;BME280;4768;42.664;23.240;2023-05-12T07:13:44;-9622.13;;;7.44;100.00
9460;BME280;4768;42.664;23.240;2023-05-12T07:16:11;-9619.44;;;7.34;100.00
9460;BME280;4768;42.664;23.240;2023-05-12T07:18:38;-9621.13;;;7.40;100.00
9460;BME280;4768;42.664;23.240;2023-05-12T07:21:05;-9617.44;;;7.27;100.00
9460;BME280;4768;42.664;23.240;2023-05-12T07:23:31;-9616.03;;;7.22;100.00
9460;BME280;4768;42.664;23.240;2023-05-12T07:25:59;-9619.56;;;7.35;100.00
9460;BME280;4768;42.664;23.240;2023-05-12T07:28:28;-9619.44;;;7.34;100.00
9460;BME280;4768;42.664;23.240;2023-05-12T07:30:56;-9621.00;;;7.40;100.00
9460;BME280;4768;42.664;23.240;2023-05-12T07:33:23;-9619.28;;;7.34;100.00
9460;BME280;4768;42.664;23.240;2023-05-12T07:35:50;-9619.44;;;7.34;100.00
9460;BME280;4768;42.664;23.240;2023-05-12T07:38:17;-9619.28;;;7.34;100.00
9460;BME280;4768;42.664;23.240;2023-05-12T07:40:43;-9618.72;;;7.32;100.00
9460;BME280;4768;42.664;23.240;2023-05-12T07:43:10;-9622.53;;;7.45;100.00
9460;BME280;4768;42.664;23.240;2023-05-12T07:45:38;-9621.84;;;7.43;100.00
9460;BME280;4768;42.664;23.240;2023-05-12T07:48:05;-9622.97;;;7.47;100.00
9460;BME280;4768;42.664;23.240;2023-05-12T07:50:32;-9626.09;;;7.58;100.00
9460;BME280;4768;42.664;23.240;2023-05-12T07:52:59;-9627.50;;;7.63;100.00
9460;BME280;4768;42.664;23.240;2023-05-12T07:55:25;-9629.91;;;7.71;100.00
9460;BME280;4768;42.664;23.240;2023-05-12T07:57:52;-9629.47;;;7.69;100.00
9460;BME280;4768;42.664;23.240;2023-05-12T08:00:19;-9631.19;;;7.75;100.00
9460;BME280;4768;42.664;23.240;2023-05-12T08:02:47;-9628.34;;;7.66;100.00
9460;BME280;4768;42.664;23.240;2023-05-12T08:05:14;-9630.47;;;7.73;100.00
9460;BME280;4768;42.664;23.240;2023-05-12T08:07:41;-9637.00;;;7.96;100.00
9460;BME280;4768;42.664;23.240;2023-05-12T08:10:09;-9644.38;;;8.21;100.00
9460;BME280;4768;42.664;23.240;2023-05-12T08:12:37;-9640.53;;;8.08;100.00
9460;BME280;4768;42.664;23.240;2023-05-12T08:15:05;-9637.41;;;7.97;100.00
9460;BME280;4768;42.664;23.240;2023-05-12T08:17:32;-9642.09;;;8.14;100.00
9460;BME280;4768;42.664;23.240;2023-05-12T08:20:00;-9643.66;;;8.19;100.00
9460;BME280;4768;42.664;23.240;2023-05-12T08:22:28;-9649.19;;;8.38;100.00
9460;BME280;4768;42.664;23.240;2023-05-12T08:24:55;-9658.13;;;8.69;100.00
9460;BME280;4768;42.664;23.240;2023-05-12T08:27:22;-9651.88;;;8.48;100.00
9460;BME280;4768;42.664;23.240;2023-05-12T08:29:49;-9654.56;;;8.57;100.00
9460;BME280;4768;42.664;23.240;2023-05-12T08:32:15;-9653.00;;;8.52;100.00
9460;BME280;4768;42.664;23.240;2023-05-12T08:34:42;-9653.00;;;8.52;100.00
9460;BME280;4768;42.664;23.240;2023-05-12T08:37:11;-9651.59;;;8.47;100.00
9460;BME280;4768;42.664;23.240;2023-05-12T08:39:37;-9650.31;;;8.42;100.00
9460;BME280;4768;42.664;23.240;2023-05-12T08:42:11;-9657.41;;;8.67;100.00
9460;BME280;4768;42.664;23.240;2023-05-12T08:44:41;-9659.66;;;8.75;100.00
9460;BME280;4768;42.664;23.240;2023-05-12T08:47:10;-9659.97;;;8.76;100.00
9460;BME280;4768;42.664;23.240;2023-05-12T08:49:39;-9661.09;;;8.80;100.00
9460;BME280;4768;42.664;23.240;2023-05-12T08:52:08;-9659.81;;;8.75;100.00
9460;BME280;4768;42.664;23.240;2023-05-12T08:54:36;-9667.91;;;9.04;100.00
9460;BME280;4768;42.664;23.240;2023-05-12T08:57:05;-9664.34;;;8.91;100.00
9460;BME280;4768;42.664;23.240;2023-05-12T08:59:32;-9671.00;;;9.14;100.00
9460;BME280;4768;42.664;23.240;2023-05-12T09:02:01;-9671.00;;;9.14;100.00
9460;BME280;4768;42.664;23.240;2023-05-12T09:04:30;-9672.56;;;9.20;100.00
9460;BME280;4768;42.664;23.240;2023-05-12T09:06:57;-9681.78;;;9.52;100.00
9460;BME280;4768;42.664;23.240;2023-05-12T09:09:26;-9691.44;;;9.86;100.00
9460;BME280;4768;42.664;23.240;2023-05-12T09:11:56;-9678.81;;;9.42;100.00
9460;BME280;4768;42.664;23.240;2023-05-12T09:14:28;-9686.03;;;9.67;100.00
9460;BME280;4768;42.664;23.240;2023-05-12T09:17:00;-9685.06;;;9.63;100.00
9460;BME280;4768;42.664;23.240;2023-05-12T09:19:28;-9687.75;;;9.73;100.00
9460;BME280;4768;42.664;23.240;2023-05-12T09:21:55;-9682.22;;;9.54;100.00
9460;BME280;4768;42.664;23.240;2023-05-12T09:24:32;-9692.84;;;9.91;100.00
9460;BME280;4768;42.664;23.240;2023-05-12T09:27:01;-9693.56;;;9.93;100.00
9460;BME280;4768;42.664;23.240;2023-05-12T09:29:29;-9695.41;;;10.00;100.00
9460;BME280;4768;42.664;23.240;2023-05-12T09:31:57;-9697.81;;;10.08;100.00
9460;BME280;4768;42.664;23.240;2023-05-12T09:34:26;-9686.03;;;9.67;100.00
9460;BME280;4768;42.664;23.240;2023-05-12T09:36:56;-9685.19;;;9.64;100.00
9460;BME280;4768;42.664;23.240;2023-05-12T09:39:23;-9701.78;;;10.22;100.00
9460;BME280;4768;42.664;23.240;2023-05-12T09:41:50;-9694.56;;;9.97;100.00
9460;BME280;4768;42.664;23.240;2023-05-12T09:44:19;-9703.06;;;10.26;100.00
9460;BME280;4768;42.664;23.240;2023-05-12T09:46:47;-9696.69;;;10.04;100.00
9460;BME280;4768;42.664;23.240;2023-05-12T09:49:17;-9692.84;;;9.91;100.00
9460;BME280;4768;42.664;23.240;2023-05-12T09:51:44;-9707.63;;;10.42;100.00
9460;BME280;4768;42.664;23.240;2023-05-12T09:54:11;-9718.84;;;10.81;100.00
9460;BME280;4768;42.664;23.240;2023-05-12T09:56:39;-9698.41;;;10.10;100.00
9460;BME280;4768;42.664;23.240;2023-05-12T09:59:08;-9706.91;;;10.40;100.00
9460;BME280;4768;42.664;23.240;2023-05-12T10:01:37;-9695.84;;;10.01;100.00
9460;BME280;4768;42.664;23.240;2023-05-12T10:04:06;-9701.94;;;10.22;100.00
9460;BME280;4768;42.664;23.240;2023-05-12T10:06:36;-9705.34;;;10.34;100.00
9460;BME280;4768;42.664;23.240;2023-05-12T10:09:10;-9710.16;;;10.51;100.00
9460;BME280;4768;42.664;23.240;2023-05-12T10:11:40;-9711.16;;;10.55;100.00
9460;BME280;4768;42.664;23.240;2023-05-12T10:14:07;-9722.25;;;10.93;100.00
9460;BME280;4768;42.664;23.240;2023-05-12T10:16:34;-9725.78;;;11.06;100.00
9460;BME280;4768;42.664;23.240;2023-05-12T10:19:03;-9729.91;;;11.20;100.00
9460;BME280;4768;42.664;23.240;2023-05-12T10:21:31;-9725.34;;;11.04;100.00
9460;BME280;4768;42.664;23.240;2023-05-12T10:23:58;-9724.22;;;11.00;100.00
9460;BME280;4768;42.664;23.240;2023-05-12T10:26:26;-9723.38;;;10.97;100.00
9460;BME280;4768;42.664;23.240;2023-05-12T10:28:54;-9723.94;;;10.99;100.00
9460;BME280;4768;42.664;23.240;2023-05-12T10:31:22;-9722.53;;;10.94;100.00
9460;BME280;4768;42.664;23.240;2023-05-12T10:33:55;-9724.50;;;11.01;100.00
9460;BME280;4768;42.664;23.240;2023-05-12T10:36:24;-9725.22;;;11.04;100.00
9460;BME280;4768;42.664;23.240;2023-05-12T10:38:51;-9729.19;;;11.17;100.00
9460;BME280;4768;42.664;23.240;2023-05-12T10:41:28;-9728.19;;;11.14;100.00
9460;BME280;4768;42.664;23.240;2023-05-12T10:43:55;-9739.13;;;11.52;100.00
9460;BME280;4768;42.664;23.240;2023-05-12T10:46:22;-9742.41;;;11.63;100.00
9460;BME280;4768;42.664;23.240;2023-05-12T10:48:52;-9743.41;;;11.67;100.00
9460;BME280;4768;42.664;23.240;2023-05-12T10:51:21;-9748.09;;;11.83;100.00
9460;BME280;4768;42.664;23.240;2023-05-12T10:53:55;-9749.38;;;11.88;100.00
9460;BME280;4768;42.664;23.240;2023-05-12T10:56:25;-9738.56;;;11.50;100.00
9460;BME280;4768;42.664;23.240;2023-05-12T10:59:06;-9743.25;;;11.66;100.00
9460;BME280;4768;42.664;23.240;2023-05-12T11:01:33;-9746.38;;;11.77;100.00
9460;BME280;4768;42.664;23.240;2023-05-12T11:04:09;-9734.03;;;11.34;100.00
9460;BME280;4768;42.664;23.240;2023-05-12T11:06:36;-9728.06;;;11.13;100.00
9460;BME280;4768;42.664;23.240;2023-05-12T11:09:04;-9734.16;;;11.35;100.00
9460;BME280;4768;42.664;23.240;2023-05-12T11:11:31;-9734.44;;;11.36;100.00
9460;BME280;4768;42.664;23.240;2023-05-12T11:13:59;-9730.75;;;11.23;100.00
9460;BME280;4768;42.664;23.240;2023-05-12T11:16:26;-9735.28;;;11.39;100.00
9460;BME280;4768;42.664;23.240;2023-05-12T11:19:00;-9740.84;;;11.58;100.00
9460;BME280;4768;42.664;23.240;2023-05-12T11:21:28;-9743.97;;;11.69;100.00
9460;BME280;4768;42.664;23.240;2023-05-12T11:23:56;-9744.69;;;11.71;100.00
9460;BME280;4768;42.664;23.240;2023-05-12T11:26:25;-9745.53;;;11.74;100.00
9460;BME280;4768;42.664;23.240;2023-05-12T11:28:51;-9743.13;;;11.66;100.00
9460;BME280;4768;42.664;23.240;2023-05-12T11:31:19;-9734.03;;;11.34;100.00
9460;BME280;4768;42.664;23.240;2023-05-12T11:33:47;-9739.72;;;11.54;100.00
9460;BME280;4768;42.664;23.240;2023-05-12T11:36:15;-9742.56;;;11.64;100.00
9460;BME280;4768;42.664;23.240;2023-05-12T11:38:47;-9745.66;;;11.75;100.00
9460;BME280;4768;42.664;23.240;2023-05-12T11:41:21;-9750.50;;;11.92;100.00
9460;BME280;4768;42.664;23.240;2023-05-12T11:43:49;-9745.38;;;11.74;100.00
9460;BME280;4768;42.664;23.240;2023-05-12T11:46:23;-9742.56;;;11.64;100.00
9460;BME280;4768;42.664;23.240;2023-05-12T11:48:54;-9746.25;;;11.77;100.00
9460;BME280;4768;42.664;23.240;2023-05-12T11:51:21;-9753.78;;;12.03;100.00
9460;BME280;4768;42.664;23.240;2023-05-12T11:53:48;-9752.50;;;11.99;100.00
9460;BME280;4768;42.664;23.240;2023-05-12T11:56:20;-9750.94;;;11.93;100.00
9460;BME280;4768;42.664;23.240;2023-05-12T11:58:53;-9749.94;;;11.90;100.00
9460;BME280;4768;42.664;23.240;2023-05-12T12:01:21;-9750.66;;;11.92;100.00
9460;BME280;4768;42.664;23.240;2023-05-12T12:03:51;-9756.63;;;12.13;100.00
9460;BME280;4768;42.664;23.240;2023-05-12T12:06:18;-9754.19;;;12.05;100.00
9460;BME280;4768;42.664;23.240;2023-05-12T12:08:50;-9752.78;;;12.00;100.00
9460;BME280;4768;42.664;23.240;2023-05-12T12:11:22;-9756.63;;;12.13;100.00
9460;BME280;4768;42.664;23.240;2023-05-12T12:13:53;-9758.88;;;12.21;100.00
9460;BME280;4768;42.664;23.240;2023-05-12T12:16:26;-9757.31;;;12.15;100.00
9460;BME280;4768;42.664;23.240;2023-05-12T12:18:53;-9764.44;;;12.40;100.00
9460;BME280;4768;42.664;23.240;2023-05-12T12:21:20;-9765.69;;;12.45;100.00
9460;BME280;4768;42.664;23.240;2023-05-12T12:23:48;-9754.34;;;12.05;100.00
9460;BME280;4768;42.664;23.240;2023-05-12T12:26:15;-9753.06;;;12.01;100.00
9460;BME280;4768;42.664;23.240;2023-05-12T12:28:42;-9752.63;;;11.99;100.00
9460;BME280;4768;42.664;23.240;2023-05-12T12:31:10;-9751.34;;;11.95;100.00
9460;BME280;4768;42.664;23.240;2023-05-12T12:33:38;-9757.31;;;12.15;100.00
9460;BME280;4768;42.664;23.240;2023-05-12T12:36:06;-9751.34;;;11.95;100.00
9460;BME280;4768;42.664;23.240;2023-05-12T12:38:33;-9755.34;;;12.08;100.00
9460;BME280;4768;42.664;23.240;2023-05-12T12:41:00;-9756.75;;;12.13;100.00
9460;BME280;4768;42.664;23.240;2023-05-12T12:43:26;-9757.88;;;12.17;100.00
9460;BME280;4768;42.664;23.240;2023-05-12T12:45:55;-9757.88;;;12.17;100.00
9460;BME280;4768;42.664;23.240;2023-05-12T12:48:24;-9766.00;;;12.46;100.00
9460;BME280;4768;42.664;23.240;2023-05-12T12:50:52;-9757.03;;;12.14;100.00
9460;BME280;4768;42.664;23.240;2023-05-12T12:53:19;-9750.22;;;11.91;100.00
9460;BME280;4768;42.664;23.240;2023-05-12T12:55:46;-9743.69;;;11.68;100.00
9460;BME280;4768;42.664;23.240;2023-05-12T12:58:13;-9751.06;;;11.94;100.00
9460;BME280;4768;42.664;23.240;2023-05-12T13:00:40;-9756.31;;;12.12;100.00
9460;BME280;4768;42.664;23.240;2023-05-12T13:03:06;-9761.44;;;12.30;100.00
9460;BME280;4768;42.664;23.240;2023-05-12T13:05:34;-9762.00;;;12.32;100.00
9460;BME280;4768;42.664;23.240;2023-05-12T13:08:02;-9747.25;;;11.80;100.00
9460;BME280;4768;42.664;23.240;2023-05-12T13:10:28;-9756.47;;;12.12;100.00